sensor_id;sensor_type;location;lat;lon;timestamp;P1;durP1;ratioP1;P2;durP2;ratioP2
53253;SDS011;75200;53.048;7.552;2024-03-23T00:53:37;30.42;;;4.47;;
53253;SDS011;75200;53.048;7.552;2024-03-23T00:56:03;32.92;;;4.60;;
53253;SDS011;75200;53.048;7.552;2024-03-23T00:58:30;37.08;;;5.25;;
53253;SDS011;75200;53.048;7.552;2024-03-23T01:00:55;35.83;;;5.32;;
53253;SDS011;75200;53.048;7.552;2024-03-23T01:03:21;20.90;;;4.57;;
53253;SDS011;75200;53.048;7.552;2024-03-23T01:05:48;33.90;;;5.28;;
53253;SDS011;75200;53.048;7.552;2024-03-23T01:08:17;28.95;;;4.68;;
53253;SDS011;75200;53.048;7.552;2024-03-23T01:10:50;24.42;;;4.30;;
53253;SDS011;75200;53.048;7.552;2024-03-23T01:13:22;30.15;;;4.78;;
53253;SDS011;75200;53.048;7.552;2024-03-23T01:15:52;33.30;;;5.55;;
53253;SDS011;75200;53.048;7.552;2024-03-23T01:18:19;34.63;;;5.93;;
53253;SDS011;75200;53.048;7.552;2024-03-23T01:20:45;42.33;;;6.30;;
53253;SDS011;75200;53.048;7.552;2024-03-23T01:23:11;36.20;;;5.30;;
53253;SDS011;75200;53.048;7.552;2024-03-23T01:25:37;40.60;;;4.90;;
53253;SDS011;75200;53.048;7.552;2024-03-23T01:28:03;35.90;;;5.53;;
53253;SDS011;75200;53.048;7.552;2024-03-23T01:30:31;35.00;;;5.82;;
53253;SDS011;75200;53.048;7.552;2024-03-23T01:32:58;37.20;;;6.05;;
53253;SDS011;75200;53.048;7.552;2024-03-23T01:35:24;34.30;;;5.22;;
53253;SDS011;75200;53.048;7.552;2024-03-23T01:37:49;40.10;;;6.18;;
53253;SDS011;75200;53.048;7.552;2024-03-23T01:40:16;45.35;;;7.35;;
53253;SDS011;75200;53.048;7.552;2024-03-23T01:42:42;36.38;;;4.72;;
53253;SDS011;75200;53.048;7.552;2024-03-23T01:45:08;44.65;;;7.45;;
53253;SDS011;75200;53.048;7.552;2024-03-23T01:47:37;37.47;;;5.00;;
53253;SDS011;75200;53.048;7.552;2024-03-23T01:50:03;39.60;;;5.35;;
53253;SDS011;75200;53.048;7.552;2024-03-23T01:52:29;46.88;;;6.20;;
53253;SDS011;75200;53.048;7.552;2024-03-23T01:54:56;40.60;;;7.07;;
53253;SDS011;75200;53.048;7.552;2024-03-23T01:57:22;34.20;;;5.50;;
53253;SDS011;75200;53.048;7.552;2024-03-23T01:59:48;45.35;;;6.10;;
53253;SDS011;75200;53.048;7.552;2024-03-23T02:02:14;37.53;;;5.40;;
53253;SDS011;75200;53.048;7.552;2024-03-23T02:04:42;44.90;;;6.18;;
53253;SDS011;75200;53.048;7.552;2024-03-23T02:07:08;50.40;;;7.22;;
53253;SDS011;75200;53.048;7.552;2024-03-23T02:09:34;41.22;;;5.13;;
53253;SDS011;75200;53.048;7.552;2024-03-23T02:12:01;47.88;;;6.70;;
53253;SDS011;75200;53.048;7.552;2024-03-23T02:14:28;33.20;;;5.13;;
53253;SDS011;75200;53.048;7.552;2024-03-23T02:16:54;33.10;;;4.50;;
53253;SDS011;75200;53.048;7.552;2024-03-23T02:19:20;36.08;;;4.50;;
53253;SDS011;75200;53.048;7.552;2024-03-23T02:21:45;32.92;;;4.68;;
53253;SDS011;75200;53.048;7.552;2024-03-23T02:24:12;31.38;;;5.30;;
53253;SDS011;75200;53.048;7.552;2024-03-23T02:26:38;38.03;;;6.43;;
53253;SDS011;75200;53.048;7.552;2024-03-23T02:29:04;49.97;;;5.60;;
53253;SDS011;75200;53.048;7.552;2024-03-23T02:31:30;43.55;;;5.53;;
53253;SDS011;75200;53.048;7.552;2024-03-23T02:33:56;40.00;;;5.20;;
53253;SDS011;75200;53.048;7.552;2024-03-23T02:36:22;40.35;;;5.10;;
53253;SDS011;75200;53.048;7.552;2024-03-23T02:38:48;40.00;;;5.72;;
53253;SDS011;75200;53.048;7.552;2024-03-23T02:41:14;39.53;;;5.88;;
53253;SDS011;75200;53.048;7.552;2024-03-23T02:43:40;36.25;;;5.38;;
53253;SDS011;75200;53.048;7.552;2024-03-23T02:46:06;35.55;;;5.90;;
53253;SDS011;75200;53.048;7.552;2024-03-23T02:48:32;49.83;;;5.90;;
53253;SDS011;75200;53.048;7.552;2024-03-23T02:50:58;34.70;;;4.95;;
53253;SDS011;75200;53.048;7.552;2024-03-23T02:53:24;30.90;;;4.70;;
53253;SDS011;75200;53.048;7.552;2024-03-23T02:55:50;37.45;;;4.70;;
53253;SDS011;75200;53.048;7.552;2024-03-23T02:58:17;33.80;;;4.90;;
53253;SDS011;75200;53.048;7.552;2024-03-23T03:00:42;40.72;;;5.88;;
53253;SDS011;75200;53.048;7.552;2024-03-23T03:03:08;43.95;;;6.45;;
53253;SDS011;75200;53.048;7.552;2024-03-23T03:05:34;40.28;;;6.35;;
53253;SDS011;75200;53.048;7.552;2024-03-23T03:08:01;44.72;;;5.55;;
53253;SDS011;75200;53.048;7.552;2024-03-23T03:10:27;43.92;;;6.85;;
53253;SDS011;75200;53.048;7.552;2024-03-23T03:12:52;29.95;;;4.20;;
53253;SDS011;75200;53.048;7.552;2024-03-23T03:15:19;30.67;;;4.43;;
53253;SDS011;75200;53.048;7.552;2024-03-23T03:17:45;37.28;;;6.28;;
53253;SDS011;75200;53.048;7.552;2024-03-23T03:20:10;50.72;;;5.63;;
53253;SDS011;75200;53.048;7.552;2024-03-23T03:22:38;42.90;;;5.45;;
53253;SDS011;75200;53.048;7.552;2024-03-23T03:25:05;46.10;;;5.32;;
53253;SDS011;75200;53.048;7.552;2024-03-23T03:27:32;57.40;;;5.75;;
53253;SDS011;75200;53.048;7.552;2024-03-23T03:29:59;32.33;;;4.75;;
53253;SDS011;75200;53.048;7.552;2024-03-23T03:32:28;48.55;;;6.03;;
53253;SDS011;75200;53.048;7.552;2024-03-23T03:34:54;41.63;;;5.13;;
53253;SDS011;75200;53.048;7.552;2024-03-23T03:37:20;40.88;;;4.88;;
53253;SDS011;75200;53.048;7.552;2024-03-23T03:39:46;34.95;;;4.82;;
53253;SDS011;75200;53.048;7.552;2024-03-23T03:42:12;37.30;;;5.18;;
53253;SDS011;75200;53.048;7.552;2024-03-23T03:44:38;46.15;;;5.38;;
53253;SDS011;75200;53.048;7.552;2024-03-23T03:47:05;34.90;;;4.78;;
53253;SDS011;75200;53.048;7.552;2024-03-23T03:49:31;39.45;;;5.50;;
53253;SDS011;75200;53.048;7.552;2024-03-23T03:51:57;35.42;;;4.90;;
53253;SDS011;75200;53.048;7.552;2024-03-23T03:54:23;41.72;;;5.32;;
53253;SDS011;75200;53.048;7.552;2024-03-23T03:56:48;40.55;;;5.43;;
53253;SDS011;75200;53.048;7.552;2024-03-23T03:59:15;43.85;;;4.80;;
53253;SDS011;75200;53.048;7.552;2024-03-23T04:01:41;40.40;;;5.57;;
53253;SDS011;75200;53.048;7.552;2024-03-23T04:04:08;42.58;;;7.05;;
53253;SDS011;75200;53.048;7.552;2024-03-23T04:06:34;57.38;;;7.20;;
53253;SDS011;75200;53.048;7.552;2024-03-23T04:09:00;41.97;;;6.30;;
53253;SDS011;75200;53.048;7.552;2024-03-23T04:11:26;49.33;;;6.80;;
53253;SDS011;75200;53.048;7.552;2024-03-23T04:13:52;50.30;;;7.82;;
53253;SDS011;75200;53.048;7.552;2024-03-23T04:16:28;47.53;;;6.40;;
53253;SDS011;75200;53.048;7.552;2024-03-23T04:18:55;38.17;;;5.32;;
53253;SDS011;75200;53.048;7.552;2024-03-23T04:21:21;41.15;;;6.13;;
53253;SDS011;75200;53.048;7.552;2024-03-23T04:23:48;27.17;;;5.65;;
53253;SDS011;75200;53.048;7.552;2024-03-23T04:26:14;43.97;;;7.90;;
53253;SDS011;75200;53.048;7.552;2024-03-23T04:28:40;39.35;;;5.72;;
53253;SDS011;75200;53.048;7.552;2024-03-23T04:31:07;34.88;;;4.47;;
53253;SDS011;75200;53.048;7.552;2024-03-23T04:33:32;38.05;;;5.53;;
53253;SDS011;75200;53.048;7.552;2024-03-23T04:35:59;45.17;;;5.93;;
53253;SDS011;75200;53.048;7.552;2024-03-23T04:38:25;35.03;;;4.95;;
53253;SDS011;75200;53.048;7.552;2024-03-23T04:40:57;31.77;;;5.55;;
53253;SDS011;75200;53.048;7.552;2024-03-23T04:43:25;47.28;;;6.63;;
53253;SDS011;75200;53.048;7.552;2024-03-23T04:45:51;42.22;;;6.65;;
53253;SDS011;75200;53.048;7.552;2024-03-23T04:48:19;30.35;;;5.05;;
53253;SDS011;75200;53.048;7.552;2024-03-23T04:50:48;35.58;;;5.28;;
53253;SDS011;75200;53.048;7.552;2024-03-23T04:53:14;31.63;;;5.35;;
53253;SDS011;75200;53.048;7.552;2024-03-23T04:55:43;41.58;;;5.93;;
53253;SDS011;75200;53.048;7.552;2024-03-23T04:58:10;31.40;;;5.30;;
53253;SDS011;75200;53.048;7.552;2024-03-23T05:00:35;37.80;;;6.60;;
53253;SDS011;75200;53.048;7.552;2024-03-23T05:03:01;35.40;;;5.43;;
53253;SDS011;75200;53.048;7.552;2024-03-23T05:05:29;30.13;;;4.78;;
53253;SDS011;75200;53.048;7.552;2024-03-23T05:07:55;39.65;;;6.53;;
53253;SDS011;75200;53.048;7.552;2024-03-23T05:10:20;31.35;;;6.45;;
53253;SDS011;75200;53.048;7.552;2024-03-23T05:12:47;39.55;;;6.28;;
53253;SDS011;75200;53.048;7.552;2024-03-23T05:15:13;25.58;;;5.28;;
53253;SDS011;75200;53.048;7.552;2024-03-23T05:17:38;33.00;;;5.88;;
53253;SDS011;75200;53.048;7.552;2024-03-23T05:20:05;28.05;;;5.35;;
53253;SDS011;75200;53.048;7.552;2024-03-23T05:22:37;33.92;;;5.45;;
53253;SDS011;75200;53.048;7.552;2024-03-23T05:25:04;36.13;;;5.40;;
53253;SDS011;75200;53.048;7.552;2024-03-23T05:27:31;33.10;;;4.78;;
53253;SDS011;75200;53.048;7.552;2024-03-23T05:29:57;32.05;;;5.80;;
53253;SDS011;75200;53.048;7.552;2024-03-23T05:32:23;47.35;;;6.55;;
53253;SDS011;75200;53.048;7.552;2024-03-23T05:34:50;41.63;;;6.97;;
53253;SDS011;75200;53.048;7.552;2024-03-23T05:37:21;34.35;;;6.65;;
53253;SDS011;75200;53.048;7.552;2024-03-23T05:39:47;40.00;;;7.13;;
53253;SDS011;75200;53.048;7.552;2024-03-23T05:42:16;36.38;;;6.03;;
53253;SDS011;75200;53.048;7.552;2024-03-23T05:44:43;47.15;;;8.38;;
53253;SDS011;75200;53.048;7.552;2024-03-23T05:47:10;39.08;;;6.65;;
53253;SDS011;75200;53.048;7.552;2024-03-23T05:49:38;37.25;;;7.47;;
53253;SDS011;75200;53.048;7.552;2024-03-23T05:52:04;34.85;;;7.15;;
53253;SDS011;75200;53.048;7.552;2024-03-23T05:54:30;36.03;;;7.78;;
53253;SDS011;75200;53.048;7.552;2024-03-23T05:56:56;42.63;;;7.25;;
53253;SDS011;75200;53.048;7.552;2024-03-23T05:59:22;34.47;;;6.75;;
53253;SDS011;75200;53.048;7.552;2024-03-23T06:01:48;38.97;;;6.47;;
53253;SDS011;75200;53.048;7.552;2024-03-23T06:04:14;32.75;;;6.22;;
53253;SDS011;75200;53.048;7.552;2024-03-23T06:06:40;41.95;;;7.28;;
53253;SDS011;75200;53.048;7.552;2024-03-23T06:09:07;36.95;;;6.55;;
53253;SDS011;75200;53.048;7.552;2024-03-23T06:11:32;31.38;;;6.97;;
53253;SDS011;75200;53.048;7.552;2024-03-23T06:13:58;36.00;;;7.07;;
53253;SDS011;75200;53.048;7.552;2024-03-23T06:16:24;30.83;;;6.63;;
53253;SDS011;75200;53.048;7.552;2024-03-23T06:18:50;28.92;;;6.13;;
53253;SDS011;75200;53.048;7.552;2024-03-23T06:21:16;29.75;;;6.90;;
53253;SDS011;75200;53.048;7.552;2024-03-23T06:23:42;30.88;;;5.53;;
53253;SDS011;75200;53.048;7.552;2024-03-23T06:26:13;33.72;;;6.25;;
53253;SDS011;75200;53.048;7.552;2024-03-23T06:28:39;23.75;;;5.55;;
53253;SDS011;75200;53.048;7.552;2024-03-23T06:31:08;32.95;;;5.57;;
53253;SDS011;75200;53.048;7.552;2024-03-23T06:33:35;26.75;;;4.93;;
53253;SDS011;75200;53.048;7.552;2024-03-23T06:36:00;29.50;;;4.57;;
53253;SDS011;75200;53.048;7.552;2024-03-23T06:38:28;26.92;;;5.43;;
53253;SDS011;75200;53.048;7.552;2024-03-23T06:40:54;23.33;;;5.47;;
53253;SDS011;75200;53.048;7.552;2024-03-23T06:43:20;27.00;;;4.72;;
53253;SDS011;75200;53.048;7.552;2024-03-23T06:45:55;24.35;;;4.38;;
53253;SDS011;75200;53.048;7.552;2024-03-23T06:48:22;24.58;;;4.57;;
53253;SDS011;75200;53.048;7.552;2024-03-23T06:50:48;26.52;;;4.25;;
53253;SDS011;75200;53.048;7.552;2024-03-23T06:53:14;24.27;;;4.07;;
53253;SDS011;75200;53.048;7.552;2024-03-23T06:55:40;26.05;;;4.03;;
53253;SDS011;75200;53.048;7.552;2024-03-23T06:58:07;23.08;;;4.53;;
53253;SDS011;75200;53.048;7.552;2024-03-23T07:00:33;20.08;;;3.85;;
53253;SDS011;75200;53.048;7.552;2024-03-23T07:02:59;21.50;;;4.13;;
53253;SDS011;75200;53.048;7.552;2024-03-23T07:05:25;23.52;;;4.18;;
53253;SDS011;75200;53.048;7.552;2024-03-23T07:07:51;24.35;;;4.00;;
53253;SDS011;75200;53.048;7.552;2024-03-23T07:10:17;18.90;;;3.65;;
53253;SDS011;75200;53.048;7.552;2024-03-23T07:12:43;20.38;;;3.08;;
53253;SDS011;75200;53.048;7.552;2024-03-23T07:15:09;23.33;;;3.70;;
53253;SDS011;75200;53.048;7.552;2024-03-23T07:17:35;20.60;;;3.33;;
53253;SDS011;75200;53.048;7.552;2024-03-23T07:20:02;23.77;;;3.28;;
53253;SDS011;75200;53.048;7.552;2024-03-23T07:22:35;19.23;;;2.67;;
53253;SDS011;75200;53.048;7.552;2024-03-23T07:25:01;21.15;;;3.10;;
53253;SDS011;75200;53.048;7.552;2024-03-23T07:27:28;25.13;;;3.33;;
53253;SDS011;75200;53.048;7.552;2024-03-23T07:29:54;17.27;;;2.65;;
53253;SDS011;75200;53.048;7.552;2024-03-23T07:32:20;13.13;;;2.83;;
53253;SDS011;75200;53.048;7.552;2024-03-23T07:34:46;19.27;;;4.00;;
53253;SDS011;75200;53.048;7.552;2024-03-23T07:37:12;9.93;;;2.50;;
53253;SDS011;75200;53.048;7.552;2024-03-23T07:39:39;12.90;;;2.40;;
53253;SDS011;75200;53.048;7.552;2024-03-23T07:42:05;14.02;;;2.72;;
53253;SDS011;75200;53.048;7.552;2024-03-23T07:44:31;9.98;;;1.50;;
53253;SDS011;75200;53.048;7.552;2024-03-23T07:46:58;14.90;;;2.50;;
53253;SDS011;75200;53.048;7.552;2024-03-23T07:49:25;10.30;;;2.40;;
53253;SDS011;75200;53.048;7.552;2024-03-23T07:51:51;4.72;;;1.50;;
53253;SDS011;75200;53.048;7.552;2024-03-23T07:54:17;11.30;;;2.10;;
53253;SDS011;75200;53.048;7.552;2024-03-23T07:56:43;13.20;;;3.08;;
53253;SDS011;75200;53.048;7.552;2024-03-23T07:59:09;14.15;;;2.15;;
53253;SDS011;75200;53.048;7.552;2024-03-23T08:01:36;8.23;;;1.30;;
53253;SDS011;75200;53.048;7.552;2024-03-23T08:04:02;8.05;;;1.65;;
53253;SDS011;75200;53.048;7.552;2024-03-23T08:06:28;8.07;;;1.55;;
53253;SDS011;75200;53.048;7.552;2024-03-23T08:08:55;8.98;;;2.17;;
53253;SDS011;75200;53.048;7.552;2024-03-23T08:11:28;10.38;;;2.88;;
53253;SDS011;75200;53.048;7.552;2024-03-23T08:13:55;11.77;;;1.70;;
53253;SDS011;75200;53.048;7.552;2024-03-23T08:16:21;9.23;;;1.58;;
53253;SDS011;75200;53.048;7.552;2024-03-23T08:18:47;10.30;;;1.92;;
53253;SDS011;75200;53.048;7.552;2024-03-23T08:21:13;9.43;;;2.13;;
53253;SDS011;75200;53.048;7.552;2024-03-23T08:23:39;11.02;;;1.80;;
53253;SDS011;75200;53.048;7.552;2024-03-23T08:26:06;11.90;;;1.85;;
53253;SDS011;75200;53.048;7.552;2024-03-23T08:28:33;6.90;;;1.50;;
53253;SDS011;75200;53.048;7.552;2024-03-23T08:31:10;7.43;;;1.10;;
53253;SDS011;75200;53.048;7.552;2024-03-23T08:33:36;8.30;;;1.60;;
53253;SDS011;75200;53.048;7.552;2024-03-23T08:36:04;11.85;;;1.50;;
53253;SDS011;75200;53.048;7.552;2024-03-23T08:38:31;5.32;;;1.30;;
53253;SDS011;75200;53.048;7.552;2024-03-23T08:41:01;8.70;;;2.38;;
53253;SDS011;75200;53.048;7.552;2024-03-23T08:46:06;11.07;;;1.98;;
53253;SDS011;75200;53.048;7.552;2024-03-23T08:48:35;11.00;;;1.67;;
53253;SDS011;75200;53.048;7.552;2024-03-23T08:51:14;12.02;;;2.28;;
53253;SDS011;75200;53.048;7.552;2024-03-23T08:53:41;12.88;;;2.53;;
53253;SDS011;75200;53.048;7.552;2024-03-23T08:56:08;7.63;;;1.73;;
53253;SDS011;75200;53.048;7.552;2024-03-23T08:58:35;9.25;;;2.22;;
53253;SDS011;75200;53.048;7.552;2024-03-23T09:03:34;13.35;;;1.83;;
53253;SDS011;75200;53.048;7.552;2024-03-23T09:06:01;9.23;;;1.70;;
53253;SDS011;75200;53.048;7.552;2024-03-23T09:08:27;13.00;;;1.83;;
53253;SDS011;75200;53.048;7.552;2024-03-23T09:10:53;15.27;;;2.38;;
53253;SDS011;75200;53.048;7.552;2024-03-23T09:13:19;7.35;;;1.77;;
53253;SDS011;75200;53.048;7.552;2024-03-23T09:15:50;11.50;;;2.05;;
53253;SDS011;75200;53.048;7.552;2024-03-23T09:18:17;8.55;;;1.27;;
53253;SDS011;75200;53.048;7.552;2024-03-23T09:20:43;8.43;;;1.35;;
53253;SDS011;75200;53.048;7.552;2024-03-23T09:23:09;9.38;;;1.92;;
53253;SDS011;75200;53.048;7.552;2024-03-23T09:25:38;6.68;;;1.73;;
53253;SDS011;75200;53.048;7.552;2024-03-23T09:28:04;7.55;;;1.35;;
53253;SDS011;75200;53.048;7.552;2024-03-23T09:30:34;11.00;;;1.80;;
53253;SDS011;75200;53.048;7.552;2024-03-23T09:33:00;8.63;;;2.15;;
53253;SDS011;75200;53.048;7.552;2024-03-23T09:35:26;7.57;;;1.50;;
53253;SDS011;75200;53.048;7.552;2024-03-23T09:37:52;5.72;;;1.30;;
53253;SDS011;75200;53.048;7.552;2024-03-23T09:40:18;5.55;;;1.20;;
53253;SDS011;75200;53.048;7.552;2024-03-23T09:42:49;7.32;;;1.30;;
53253;SDS011;75200;53.048;7.552;2024-03-23T09:45:20;4.72;;;0.90;;
53253;SDS011;75200;53.048;7.552;2024-03-23T09:47:47;4.57;;;0.80;;
53253;SDS011;75200;53.048;7.552;2024-03-23T09:50:13;6.05;;;0.93;;
53253;SDS011;75200;53.048;7.552;2024-03-23T09:52:39;7.03;;;1.73;;
53253;SDS011;75200;53.048;7.552;2024-03-23T09:55:07;7.05;;;1.40;;
53253;SDS011;75200;53.048;7.552;2024-03-23T09:57:34;9.15;;;1.83;;
53253;SDS011;75200;53.048;7.552;2024-03-23T10:00:01;7.15;;;1.20;;
53253;SDS011;75200;53.048;7.552;2024-03-23T10:02:27;6.57;;;1.00;;
53253;SDS011;75200;53.048;7.552;2024-03-23T10:04:54;6.90;;;1.20;;
53253;SDS011;75200;53.048;7.552;2024-03-23T10:07:20;10.93;;;1.70;;
53253;SDS011;75200;53.048;7.552;2024-03-23T10:09:47;11.75;;;1.98;;
53253;SDS011;75200;53.048;7.552;2024-03-23T10:12:14;9.32;;;2.05;;
53253;SDS011;75200;53.048;7.552;2024-03-23T10:14:41;12.30;;;1.73;;
53253;SDS011;75200;53.048;7.552;2024-03-23T10:17:17;8.30;;;1.48;;
53253;SDS011;75200;53.048;7.552;2024-03-23T10:19:47;13.05;;;2.28;;
53253;SDS011;75200;53.048;7.552;2024-03-23T10:22:17;12.25;;;1.73;;
53253;SDS011;75200;53.048;7.552;2024-03-23T10:24:44;13.57;;;1.70;;
53253;SDS011;75200;53.048;7.552;2024-03-23T10:27:14;7.35;;;1.30;;
53253;SDS011;75200;53.048;7.552;2024-03-23T10:29:45;9.60;;;1.27;;
53253;SDS011;75200;53.048;7.552;2024-03-23T10:32:12;9.57;;;1.40;;
53253;SDS011;75200;53.048;7.552;2024-03-23T10:34:42;9.73;;;1.25;;
53253;SDS011;75200;53.048;7.552;2024-03-23T10:37:08;7.38;;;1.67;;
53253;SDS011;75200;53.048;7.552;2024-03-23T10:39:38;8.93;;;1.30;;
53253;SDS011;75200;53.048;7.552;2024-03-23T10:42:05;5.43;;;1.30;;
53253;SDS011;75200;53.048;7.552;2024-03-23T10:44:42;6.60;;;1.20;;
53253;SDS011;75200;53.048;7.552;2024-03-23T10:47:08;7.32;;;1.02;;
53253;SDS011;75200;53.048;7.552;2024-03-23T10:49:35;4.93;;;0.77;;
53253;SDS011;75200;53.048;7.552;2024-03-23T10:52:02;6.30;;;0.90;;
53253;SDS011;75200;53.048;7.552;2024-03-23T10:54:32;5.97;;;1.05;;
53253;SDS011;75200;53.048;7.552;2024-03-23T10:57:03;5.93;;;1.05;;
53253;SDS011;75200;53.048;7.552;2024-03-23T10:59:40;7.75;;;1.17;;
53253;SDS011;75200;53.048;7.552;2024-03-23T11:02:06;6.25;;;1.58;;
53253;SDS011;75200;53.048;7.552;2024-03-23T11:04:37;6.30;;;1.20;;
53253;SDS011;75200;53.048;7.552;2024-03-23T11:09:48;8.77;;;1.10;;
53253;SDS011;75200;53.048;7.552;2024-03-23T11:15:05;10.35;;;1.30;;
53253;SDS011;75200;53.048;7.552;2024-03-23T11:17:36;6.28;;;0.90;;
53253;SDS011;75200;53.048;7.552;2024-03-23T11:22:46;6.35;;;0.93;;
53253;SDS011;75200;53.048;7.552;2024-03-23T11:25:16;6.57;;;1.02;;
53253;SDS011;75200;53.048;7.552;2024-03-23T11:27:43;8.82;;;1.48;;
53253;SDS011;75200;53.048;7.552;2024-03-23T11:30:14;5.07;;;1.20;;
53253;SDS011;75200;53.048;7.552;2024-03-23T11:32:41;6.60;;;1.40;;
53253;SDS011;75200;53.048;7.552;2024-03-23T11:35:07;8.77;;;0.93;;
53253;SDS011;75200;53.048;7.552;2024-03-23T11:37:35;5.57;;;1.30;;
53253;SDS011;75200;53.048;7.552;2024-03-23T11:40:16;5.28;;;1.00;;
53253;SDS011;75200;53.048;7.552;2024-03-23T11:42:43;9.70;;;1.52;;
53253;SDS011;75200;53.048;7.552;2024-03-23T11:45:09;9.57;;;1.40;;
53253;SDS011;75200;53.048;7.552;2024-03-23T11:47:35;5.40;;;1.30;;
53253;SDS011;75200;53.048;7.552;2024-03-23T11:50:01;4.88;;;1.00;;
53253;SDS011;75200;53.048;7.552;2024-03-23T11:52:27;4.13;;;0.90;;
53253;SDS011;75200;53.048;7.552;2024-03-23T11:55:02;9.07;;;1.13;;
53253;SDS011;75200;53.048;7.552;2024-03-23T11:57:29;8.43;;;1.27;;
53253;SDS011;75200;53.048;7.552;2024-03-23T11:59:55;6.68;;;1.27;;
53253;SDS011;75200;53.048;7.552;2024-03-23T12:02:20;4.82;;;1.00;;
53253;SDS011;75200;53.048;7.552;2024-03-23T12:04:47;7.85;;;1.17;;
53253;SDS011;75200;53.048;7.552;2024-03-23T12:07:13;4.28;;;0.90;;
53253;SDS011;75200;53.048;7.552;2024-03-23T12:09:40;5.88;;;0.75;;
53253;SDS011;75200;53.048;7.552;2024-03-23T12:12:10;7.10;;;0.73;;
53253;SDS011;75200;53.048;7.552;2024-03-23T12:15:00;4.32;;;0.47;;
53253;SDS011;75200;53.048;7.552;2024-03-23T12:17:28;5.05;;;0.70;;
53253;SDS011;75200;53.048;7.552;2024-03-23T12:19:54;3.42;;;0.60;;
53253;SDS011;75200;53.048;7.552;2024-03-23T12:22:20;6.07;;;1.05;;
53253;SDS011;75200;53.048;7.552;2024-03-23T12:24:46;8.05;;;1.02;;
53253;SDS011;75200;53.048;7.552;2024-03-23T12:27:12;6.65;;;1.15;;
53253;SDS011;75200;53.048;7.552;2024-03-23T12:29:38;7.18;;;1.00;;
53253;SDS011;75200;53.048;7.552;2024-03-23T12:32:04;7.85;;;1.13;;
53253;SDS011;75200;53.048;7.552;2024-03-23T12:34:30;7.93;;;1.25;;
53253;SDS011;75200;53.048;7.552;2024-03-23T12:36:56;5.03;;;0.95;;
53253;SDS011;75200;53.048;7.552;2024-03-23T12:39:22;8.00;;;1.20;;
53253;SDS011;75200;53.048;7.552;2024-03-23T12:41:48;5.03;;;0.90;;
53253;SDS011;75200;53.048;7.552;2024-03-23T12:44:15;4.57;;;1.00;;
53253;SDS011;75200;53.048;7.552;2024-03-23T12:46:41;6.07;;;1.08;;
53253;SDS011;75200;53.048;7.552;2024-03-23T12:49:07;5.07;;;0.77;;
53253;SDS011;75200;53.048;7.552;2024-03-23T12:51:33;3.72;;;0.80;;
53253;SDS011;75200;53.048;7.552;2024-03-23T12:53:59;6.32;;;1.05;;
53253;SDS011;75200;53.048;7.552;2024-03-23T12:56:25;4.90;;;0.90;;
53253;SDS011;75200;53.048;7.552;2024-03-23T12:58:51;5.85;;;0.90;;
53253;SDS011;75200;53.048;7.552;2024-03-23T13:01:18;8.10;;;0.93;;
53253;SDS011;75200;53.048;7.552;2024-03-23T13:03:51;7.25;;;1.00;;
53253;SDS011;75200;53.048;7.552;2024-03-23T13:06:18;5.32;;;1.20;;
53253;SDS011;75200;53.048;7.552;2024-03-23T13:08:47;0.73;;;0.30;;
53253;SDS011;75200;53.048;7.552;2024-03-23T13:11:15;3.72;;;0.20;;
53253;SDS011;75200;53.048;7.552;2024-03-23T13:13:41;1.63;;;0.20;;
53253;SDS011;75200;53.048;7.552;2024-03-23T13:16:07;0.65;;;0.17;;
53253;SDS011;75200;53.048;7.552;2024-03-23T13:18:33;2.22;;;0.20;;
53253;SDS011;75200;53.048;7.552;2024-03-23T13:20:59;1.40;;;0.30;;
53253;SDS011;75200;53.048;7.552;2024-03-23T13:23:25;1.13;;;0.30;;
53253;SDS011;75200;53.048;7.552;2024-03-23T13:25:54;1.55;;;0.20;;
53253;SDS011;75200;53.048;7.552;2024-03-23T13:28:21;2.28;;;0.30;;
53253;SDS011;75200;53.048;7.552;2024-03-23T13:30:54;3.38;;;0.70;;
53253;SDS011;75200;53.048;7.552;2024-03-23T13:33:22;7.07;;;0.80;;
53253;SDS011;75200;53.048;7.552;2024-03-23T13:35:52;4.85;;;0.95;;
53253;SDS011;75200;53.048;7.552;2024-03-23T13:38:18;6.38;;;1.45;;
53253;SDS011;75200;53.048;7.552;2024-03-23T13:40:57;4.85;;;0.98;;
53253;SDS011;75200;53.048;7.552;2024-03-23T13:43:24;4.80;;;1.10;;
53253;SDS011;75200;53.048;7.552;2024-03-23T13:45:57;5.03;;;1.02;;
53253;SDS011;75200;53.048;7.552;2024-03-23T13:48:24;7.70;;;1.05;;
53253;SDS011;75200;53.048;7.552;2024-03-23T13:51:04;8.18;;;1.20;;
53253;SDS011;75200;53.048;7.552;2024-03-23T13:53:30;6.70;;;0.90;;
53253;SDS011;75200;53.048;7.552;2024-03-23T13:55:58;9.23;;;1.80;;
53253;SDS011;75200;53.048;7.552;2024-03-23T13:58:24;7.70;;;1.40;;
53253;SDS011;75200;53.048;7.552;2024-03-23T14:00:52;7.78;;;1.08;;
53253;SDS011;75200;53.048;7.552;2024-03-23T14:03:19;7.25;;;1.08;;
53253;SDS011;75200;53.048;7.552;2024-03-23T14:05:44;4.82;;;1.00;;
53253;SDS011;75200;53.048;7.552;2024-03-23T14:08:12;4.90;;;0.70;;
53253;SDS011;75200;53.048;7.552;2024-03-23T14:10:40;5.95;;;1.58;;
53253;SDS011;75200;53.048;7.552;2024-03-23T14:13:07;5.20;;;0.73;;
53253;SDS011;75200;53.048;7.552;2024-03-23T14:15:33;3.40;;;0.32;;
53253;SDS011;75200;53.048;7.552;2024-03-23T14:17:59;9.80;;;1.15;;
53253;SDS011;75200;53.048;7.552;2024-03-23T14:20:25;3.67;;;0.63;;
53253;SDS011;75200;53.048;7.552;2024-03-23T14:22:51;4.65;;;0.63;;
53253;SDS011;75200;53.048;7.552;2024-03-23T14:25:17;6.15;;;0.88;;
53253;SDS011;75200;53.048;7.552;2024-03-23T14:27:44;10.00;;;1.42;;
53253;SDS011;75200;53.048;7.552;2024-03-23T14:30:10;8.00;;;1.23;;
53253;SDS011;75200;53.048;7.552;2024-03-23T14:32:37;4.65;;;1.00;;
53253;SDS011;75200;53.048;7.552;2024-03-23T14:35:03;7.13;;;1.23;;
53253;SDS011;75200;53.048;7.552;2024-03-23T14:37:30;10.25;;;1.83;;
53253;SDS011;75200;53.048;7.552;2024-03-23T14:39:56;12.13;;;1.88;;
53253;SDS011;75200;53.048;7.552;2024-03-23T14:42:22;4.78;;;1.05;;
53253;SDS011;75200;53.048;7.552;2024-03-23T14:44:49;6.53;;;1.05;;
53253;SDS011;75200;53.048;7.552;2024-03-23T14:47:15;7.20;;;1.48;;
53253;SDS011;75200;53.048;7.552;2024-03-23T14:49:42;10.45;;;1.63;;
53253;SDS011;75200;53.048;7.552;2024-03-23T14:52:12;10.10;;;1.80;;
53253;SDS011;75200;53.048;7.552;2024-03-23T14:54:42;10.60;;;2.13;;
53253;SDS011;75200;53.048;7.552;2024-03-23T14:57:09;10.20;;;1.50;;
53253;SDS011;75200;53.048;7.552;2024-03-23T14:59:36;8.93;;;1.17;;
53253;SDS011;75200;53.048;7.552;2024-03-23T15:02:08;10.18;;;1.88;;
53253;SDS011;75200;53.048;7.552;2024-03-23T15:04:35;9.73;;;1.88;;
53253;SDS011;75200;53.048;7.552;2024-03-23T15:07:01;5.40;;;1.02;;
53253;SDS011;75200;53.048;7.552;2024-03-23T15:09:28;8.30;;;1.60;;
53253;SDS011;75200;53.048;7.552;2024-03-23T15:11:54;8.02;;;1.40;;
53253;SDS011;75200;53.048;7.552;2024-03-23T15:14:21;10.15;;;1.70;;
53253;SDS011;75200;53.048;7.552;2024-03-23T15:16:46;10.82;;;1.90;;
53253;SDS011;75200;53.048;7.552;2024-03-23T15:19:14;11.93;;;1.90;;
53253;SDS011;75200;53.048;7.552;2024-03-23T15:21:42;10.20;;;1.70;;
53253;SDS011;75200;53.048;7.552;2024-03-23T15:24:08;14.00;;;2.08;;
53253;SDS011;75200;53.048;7.552;2024-03-23T15:26:37;10.77;;;1.80;;
53253;SDS011;75200;53.048;7.552;2024-03-23T15:29:03;10.95;;;1.80;;
53253;SDS011;75200;53.048;7.552;2024-03-23T15:31:36;9.05;;;1.55;;
53253;SDS011;75200;53.048;7.552;2024-03-23T15:34:02;8.32;;;1.23;;
53253;SDS011;75200;53.048;7.552;2024-03-23T15:36:29;71.50;;;4.63;;
53253;SDS011;75200;53.048;7.552;2024-03-23T15:38:55;9.50;;;1.70;;
53253;SDS011;75200;53.048;7.552;2024-03-23T15:41:21;9.60;;;2.05;;
53253;SDS011;75200;53.048;7.552;2024-03-23T15:43:51;10.35;;;1.65;;
53253;SDS011;75200;53.048;7.552;2024-03-23T15:46:18;10.48;;;2.00;;